Terminal Aerodrome Forecast
Issued by NWS Oklahoma City, OK

Home | Current Version | Previous Version | Text Only | Print | Product List | Glossary On
Versions: 1 2 3 4 5 6 7 8 9 10 11 12 13 14 15 16
000
FTUS44 KOUN 200059 AAB
TAFOUN
TAF AMD
KOUN 200059Z 2001/2024 12011G15KT 5SM BR OVC004
     FM200200 15014KT 5SM -TSRA BR OVC004CB
      TEMPO 2002/2006 2SM TSRA BKN004 OVC015CB
     FM201000 19008KT P6SM SCT030 BKN100
     FM201500 22010KT P6SM BKN250=

USA.gov is the U.S. government's official web portal to all federal, state and local government web resources and services.